createdAt,value
2019-05-07T00:01:23.400Z,3.53
2019-05-07T00:03:53.093Z,3.60
2019-05-07T00:06:23.437Z,3.27
2019-05-07T00:08:53.286Z,3.90
2019-05-07T00:11:23.615Z,3.27
2019-05-07T00:13:53.991Z,3.50
2019-05-07T00:16:23.695Z,3.97
2019-05-07T00:18:54.027Z,3.83
2019-05-07T00:21:23.734Z,3.13
2019-05-07T00:23:54.108Z,3.30
2019-05-07T00:26:23.836Z,3.47
2019-05-07T00:28:53.557Z,3.87
2019-05-07T00:31:23.451Z,3.70
2019-05-07T00:33:53.803Z,3.40
2019-05-07T00:36:42.533Z,3.43
2019-05-07T00:39:42.398Z,4.10
2019-05-07T00:42:34.558Z,4.17
2019-05-07T00:45:21.636Z,3.67
2019-05-07T00:47:49.463Z,3.77
2019-05-07T00:50:25.705Z,3.93
2019-05-07T00:52:55.409Z,4.10
2019-05-07T00:55:25.720Z,4.20
2019-05-07T00:57:56.055Z,3.97
2019-05-07T01:00:26.473Z,3.90
2019-05-07T01:02:56.815Z,4.07
2019-05-07T01:05:26.560Z,4.10
2019-05-07T01:07:56.979Z,4.07
2019-05-07T01:10:26.711Z,3.93
2019-05-07T01:12:59.254Z,4.40
2019-05-07T01:15:32.148Z,3.95
2019-05-07T01:18:02.721Z,4.53
2019-05-07T01:20:32.932Z,4.10
2019-05-07T01:23:03.420Z,4.40
2019-05-07T01:25:33.798Z,4.63
2019-05-07T01:28:04.184Z,4.57
2019-05-07T01:30:33.936Z,4.33
2019-05-07T01:33:17.883Z,4.42
2019-05-07T01:36:13.105Z,4.43
2019-05-07T01:38:43.007Z,4.53
2019-05-07T01:41:13.365Z,4.20
2019-05-07T01:43:45.598Z,4.17
2019-05-07T01:46:15.977Z,4.20
2019-05-07T01:48:45.721Z,4.80
2019-05-07T01:51:16.068Z,4.47
2019-05-07T01:53:45.824Z,4.37
2019-05-07T01:56:16.139Z,4.63
2019-05-07T01:58:45.874Z,4.20
2019-05-07T02:01:16.177Z,5.17
2019-05-07T02:04:04.878Z,4.57
2019-05-07T02:07:00.002Z,4.97
2019-05-07T02:09:42.550Z,4.60
2019-05-07T02:12:22.450Z,5.10
2019-05-07T02:14:53.125Z,4.53
2019-05-07T02:17:22.958Z,5.03
2019-05-07T02:19:53.263Z,4.90
2019-05-07T02:22:23.008Z,4.73
2019-05-07T02:24:53.447Z,5.17
2019-05-07T02:27:23.177Z,5.07
2019-05-07T02:29:53.424Z,5.13
2019-05-07T02:32:23.986Z,5.17
2019-05-07T02:34:54.826Z,5.23
2019-05-07T02:37:48.415Z,5.27
2019-05-07T02:40:17.221Z,5.13
2019-05-07T02:42:46.959Z,4.60
2019-05-07T02:45:34.535Z,5.00
2019-05-07T02:48:04.841Z,4.67
2019-05-07T02:50:44.636Z,4.50
2019-05-07T02:53:22.837Z,5.07
2019-05-07T02:55:55.304Z,4.50
2019-05-07T02:58:25.033Z,4.73
2019-05-07T03:00:55.564Z,4.70
2019-05-07T03:03:25.212Z,4.10
2019-05-07T03:05:54.853Z,4.00
2019-05-07T03:08:27.573Z,4.07
2019-05-07T03:10:57.297Z,4.30
2019-05-07T03:13:27.677Z,4.40
2019-05-07T03:15:58.200Z,4.53
2019-05-07T03:18:28.632Z,4.43
2019-05-07T03:21:03.627Z,4.07
2019-05-07T03:23:44.193Z,4.13
2019-05-07T03:26:37.035Z,4.13
2019-05-07T03:29:13.100Z,3.80
2019-05-07T03:31:56.422Z,4.73
2019-05-07T03:34:50.105Z,4.57
2019-05-07T03:37:24.139Z,4.67
2019-05-07T03:39:54.525Z,4.77
2019-05-07T03:42:25.022Z,3.93
2019-05-07T03:45:23.322Z,3.80
2019-05-07T03:48:23.694Z,4.50
2019-05-07T03:50:53.527Z,4.10
2019-05-07T03:53:23.578Z,4.23
2019-05-07T03:55:54.256Z,4.30
2019-05-07T03:58:24.130Z,5.00
2019-05-07T04:00:54.588Z,4.17
2019-05-07T04:03:25.072Z,4.17
2019-05-07T04:05:55.410Z,3.97
2019-05-07T04:08:25.133Z,4.50
2019-05-07T04:10:55.400Z,4.27
2019-05-07T04:13:25.761Z,4.20
2019-05-07T04:15:55.480Z,4.53
2019-05-07T04:18:25.107Z,4.47
2019-05-07T04:20:55.461Z,4.17
2019-05-07T04:23:25.832Z,4.50
2019-05-07T04:26:07.911Z,4.27
2019-05-07T04:29:05.588Z,3.90
2019-05-07T04:31:42.465Z,4.37
2019-05-07T04:34:16.686Z,4.63
2019-05-07T04:36:49.013Z,4.00
2019-05-07T04:39:22.931Z,4.77
2019-05-07T04:41:53.019Z,5.50
2019-05-07T04:44:23.477Z,5.13
2019-05-07T04:46:54.173Z,5.07
2019-05-07T04:49:24.517Z,5.27
2019-05-07T04:52:03.890Z,4.80
2019-05-07T04:54:34.703Z,4.73
2019-05-07T04:57:08.654Z,5.10
2019-05-07T04:59:39.131Z,5.40
2019-05-07T05:02:15.606Z,5.30
2019-05-07T05:04:45.958Z,5.03
2019-05-07T05:07:16.296Z,5.17
2019-05-07T05:09:46.752Z,5.87
2019-05-07T05:12:16.446Z,6.30
2019-05-07T05:14:46.744Z,5.70
2019-05-07T05:17:16.468Z,6.10
2019-05-07T05:19:46.747Z,6.10
2019-05-07T05:22:31.807Z,5.53
2019-05-07T05:25:14.110Z,6.23
2019-05-07T05:27:44.422Z,7.23
2019-05-07T05:30:21.959Z,6.03
2019-05-07T05:32:52.470Z,6.20
2019-05-07T05:35:22.314Z,6.33
2019-05-07T05:37:52.617Z,6.87
2019-05-07T05:40:22.786Z,7.50
2019-05-07T05:43:02.272Z,7.37
2019-05-07T05:45:42.554Z,6.97
2019-05-07T05:48:13.616Z,7.27
2019-05-07T05:51:05.787Z,6.93
2019-05-07T05:53:43.348Z,7.13
2019-05-07T05:56:22.857Z,7.53
2019-05-07T05:59:37.051Z,8.20
2019-05-07T06:02:16.480Z,8.60
2019-05-07T06:05:06.289Z,8.53
2019-05-07T06:07:42.626Z,7.17
2019-05-07T06:10:49.296Z,7.20
2019-05-07T06:13:28.996Z,7.23
2019-05-07T06:16:16.113Z,6.63
2019-05-07T06:19:12.997Z,6.67
2019-05-07T06:22:12.800Z,7.37
2019-05-07T06:24:52.158Z,6.53
2019-05-07T06:27:22.914Z,6.37
2019-05-07T06:29:53.282Z,5.57
2019-05-07T06:32:23.094Z,6.03
2019-05-07T06:34:53.473Z,5.90
2019-05-07T06:37:23.249Z,7.10
2019-05-07T06:40:12.235Z,6.30
2019-05-07T06:43:04.671Z,5.83
2019-05-07T06:45:38.882Z,5.83
2019-05-07T06:48:08.475Z,4.70
2019-05-07T06:50:40.513Z,5.13
2019-05-07T06:53:11.893Z,4.10
2019-05-07T06:55:42.789Z,4.80
2019-05-07T06:58:12.862Z,4.20
2019-05-07T07:01:02.320Z,4.37
2019-05-07T07:03:54.751Z,3.40
2019-05-07T07:06:27.910Z,3.87
2019-05-07T07:09:16.728Z,3.17
2019-05-07T07:11:52.903Z,3.23
2019-05-07T07:14:22.845Z,3.10
2019-05-07T07:16:52.748Z,3.20
2019-05-07T07:19:23.281Z,3.40
2019-05-07T07:21:53.767Z,4.03
2019-05-07T07:24:23.485Z,4.10
2019-05-07T07:26:53.852Z,3.70
2019-05-07T07:29:26.360Z,3.70
2019-05-07T07:31:59.708Z,4.10
2019-05-07T07:34:33.321Z,3.40
2019-05-07T07:37:10.971Z,4.00
2019-05-07T07:39:39.606Z,3.97
2019-05-07T07:42:12.271Z,3.90
2019-05-07T07:44:42.555Z,3.40
2019-05-07T07:47:13.014Z,2.97
2019-05-07T07:49:43.540Z,3.70
2019-05-07T07:52:13.272Z,3.20
2019-05-07T07:54:43.589Z,3.17
2019-05-07T07:57:32.454Z,4.00
2019-05-07T08:00:08.809Z,3.63
2019-05-07T08:02:44.144Z,3.10
2019-05-07T08:05:13.985Z,3.50
2019-05-07T08:07:44.340Z,2.97
2019-05-07T08:10:15.151Z,3.00
2019-05-07T08:12:45.693Z,3.43
2019-05-07T08:15:21.215Z,2.87
2019-05-07T08:17:48.128Z,2.63
2019-05-07T08:20:19.525Z,2.70
2019-05-07T08:22:49.925Z,3.30
2019-05-07T08:25:21.820Z,2.73
2019-05-07T08:27:52.408Z,2.67
2019-05-07T08:30:26.107Z,2.93
2019-05-07T08:33:02.170Z,2.57
2019-05-07T08:35:41.783Z,3.27
2019-05-07T08:38:12.800Z,2.90
2019-05-07T08:40:42.785Z,2.40
2019-05-07T08:43:12.669Z,2.73
2019-05-07T08:46:02.563Z,2.40
2019-05-07T08:48:40.074Z,2.60
2019-05-07T08:51:11.825Z,2.73
2019-05-07T08:53:42.274Z,2.73
2019-05-07T08:56:12.547Z,2.73
2019-05-07T08:58:42.876Z,2.73
2019-05-07T09:01:12.808Z,2.70
2019-05-07T09:03:43.183Z,2.67
2019-05-07T09:06:13.910Z,3.13
2019-05-07T09:08:44.246Z,2.60
2019-05-07T09:11:14.700Z,3.03
2019-05-07T09:13:45.182Z,3.00
2019-05-07T09:16:16.207Z,2.47
2019-05-07T09:18:46.664Z,2.80
2019-05-07T09:21:17.194Z,2.93
2019-05-07T09:23:46.931Z,2.80
2019-05-07T09:26:22.007Z,2.77
2019-05-07T09:29:19.468Z,2.90
2019-05-07T09:32:07.478Z,3.07
2019-05-07T09:34:42.517Z,2.90
2019-05-07T09:37:14.530Z,3.17
2019-05-07T09:39:44.857Z,3.20
2019-05-07T09:42:15.334Z,3.40
2019-05-07T09:44:45.104Z,3.37
2019-05-07T09:47:17.169Z,3.00
2019-05-07T09:50:01.038Z,3.47
2019-05-07T09:52:25.974Z,4.60
2019-05-07T09:54:52.502Z,3.50
2019-05-07T09:57:30.401Z,3.70
2019-05-07T09:59:53.541Z,3.70
2019-05-07T10:02:23.187Z,3.07
2019-05-07T10:04:53.541Z,3.30
2019-05-07T10:07:23.411Z,3.67
2019-05-07T10:09:53.075Z,3.87
2019-05-07T10:12:32.997Z,3.63
2019-05-07T10:15:03.180Z,3.90
2019-05-07T10:17:44.251Z,4.00
2019-05-07T10:20:21.694Z,3.70
2019-05-07T10:22:47.896Z,3.70
2019-05-07T10:25:18.808Z,4.20
2019-05-07T10:27:49.508Z,4.13
2019-05-07T10:30:21.846Z,4.30
2019-05-07T10:32:52.722Z,4.17
2019-05-07T10:35:23.028Z,4.20
2019-05-07T10:37:53.006Z,4.40
2019-05-07T10:40:22.969Z,4.37
2019-05-07T10:42:53.204Z,3.83
2019-05-07T10:45:42.237Z,4.70
2019-05-07T10:48:36.832Z,4.13
2019-05-07T10:51:06.478Z,4.23
2019-05-07T10:53:36.128Z,3.67
2019-05-07T10:56:06.388Z,4.03
2019-05-07T10:58:36.821Z,4.45
2019-05-07T11:01:07.009Z,4.57
2019-05-07T11:03:37.256Z,3.72
2019-05-07T11:06:07.778Z,4.30
2019-05-07T11:08:38.193Z,4.03
2019-05-07T11:11:07.906Z,4.07
2019-05-07T11:13:38.194Z,4.60
2019-05-07T11:16:11.849Z,4.50
2019-05-07T11:18:44.914Z,4.90
2019-05-07T11:21:15.360Z,6.57
2019-05-07T11:23:45.803Z,13.87
2019-05-07T11:26:15.614Z,7.13
2019-05-07T11:28:45.935Z,5.97
2019-05-07T11:31:16.398Z,12.17
2019-05-07T11:33:46.749Z,5.50
2019-05-07T11:36:17.346Z,4.93
2019-05-07T11:38:48.076Z,8.63
2019-05-07T11:41:25.237Z,4.80
2019-05-07T11:44:01.637Z,4.60
2019-05-07T11:46:41.955Z,5.13
2019-05-07T11:49:34.852Z,4.90
2019-05-07T11:52:15.015Z,5.50
2019-05-07T11:54:43.867Z,5.03
2019-05-07T11:57:13.595Z,5.97
2019-05-07T11:59:43.302Z,5.00
2019-05-07T12:02:13.651Z,5.47
2019-05-07T12:04:43.457Z,5.53
2019-05-07T12:07:13.171Z,5.67
2019-05-07T12:09:42.850Z,6.03
2019-05-07T12:12:12.793Z,7.00
2019-05-07T12:14:42.520Z,6.57
2019-05-07T12:17:12.238Z,6.87
2019-05-07T12:19:43.863Z,6.30
2019-05-07T12:22:14.867Z,6.13
2019-05-07T12:24:45.791Z,6.30
2019-05-07T12:27:16.325Z,5.93
2019-05-07T12:29:46.821Z,6.63
2019-05-07T12:32:32.352Z,6.43
2019-05-07T12:35:08.168Z,6.20
2019-05-07T12:37:38.513Z,6.70
2019-05-07T12:40:09.382Z,7.03
2019-05-07T12:42:42.035Z,7.07
2019-05-07T12:45:12.611Z,6.53
2019-05-07T12:47:42.431Z,7.43
2019-05-07T12:50:12.153Z,6.90
2019-05-07T12:53:07.596Z,6.27
2019-05-07T12:55:42.861Z,7.00
2019-05-07T12:58:12.755Z,6.03
2019-05-07T13:00:57.249Z,5.93
2019-05-07T13:03:38.798Z,6.07
2019-05-07T13:06:11.541Z,6.77
2019-05-07T13:08:42.019Z,7.43
2019-05-07T13:11:13.215Z,14.97
2019-05-07T13:13:43.699Z,6.40
2019-05-07T13:16:13.526Z,6.70
2019-05-07T13:18:43.814Z,5.70
2019-05-07T13:21:13.632Z,5.40
2019-05-07T13:23:44.060Z,5.23
2019-05-07T13:26:13.904Z,5.70
2019-05-07T13:28:44.467Z,4.87
2019-05-07T13:31:14.227Z,4.93
2019-05-07T13:33:46.200Z,4.50
2019-05-07T13:36:17.188Z,4.53
2019-05-07T13:39:16.136Z,3.70
2019-05-07T13:42:08.576Z,3.20
2019-05-07T13:45:03.828Z,3.60
2019-05-07T13:47:39.598Z,3.10
2019-05-07T13:50:12.100Z,3.10
2019-05-07T13:52:43.392Z,3.03
2019-05-07T13:55:13.439Z,2.93
2019-05-07T13:57:43.402Z,3.00
2019-05-07T14:00:18.817Z,2.70
2019-05-07T14:02:48.535Z,3.00
2019-05-07T14:05:22.249Z,3.30
2019-05-07T14:07:52.079Z,3.00
2019-05-07T14:10:21.809Z,3.07
2019-05-07T14:12:52.176Z,2.57
2019-05-07T14:15:23.170Z,4.10
2019-05-07T14:17:55.061Z,2.80
2019-05-07T14:20:24.624Z,3.07
2019-05-07T14:22:55.033Z,3.17
2019-05-07T14:25:24.779Z,2.90
2019-05-07T14:27:55.085Z,2.80
2019-05-07T14:30:25.183Z,2.20
2019-05-07T14:33:12.425Z,2.65
2019-05-07T14:35:54.612Z,2.80
2019-05-07T14:38:27.801Z,3.03
2019-05-07T14:40:59.997Z,2.93
2019-05-07T14:43:41.716Z,3.17
2019-05-07T14:46:12.060Z,3.00
2019-05-07T14:48:43.783Z,3.10
2019-05-07T14:51:13.124Z,3.00
2019-05-07T14:53:42.837Z,3.27
2019-05-07T14:56:14.241Z,2.90
2019-05-07T14:58:45.208Z,3.10
2019-05-07T15:01:15.002Z,3.37
2019-05-07T15:03:44.627Z,3.07
2019-05-07T15:06:14.255Z,3.53
2019-05-07T15:08:44.085Z,3.00
2019-05-07T15:11:13.905Z,2.70
2019-05-07T15:13:44.241Z,2.57
2019-05-07T15:16:14.139Z,3.33
2019-05-07T15:18:49.437Z,3.37
2019-05-07T15:21:20.448Z,3.55
2019-05-07T15:23:52.986Z,3.60
2019-05-07T15:26:22.863Z,3.40
2019-05-07T15:29:00.880Z,3.90
2019-05-07T15:31:48.896Z,3.43
2019-05-07T15:34:19.390Z,3.90
2019-05-07T15:36:49.850Z,4.17
2019-05-07T15:39:22.200Z,3.63
2019-05-07T15:41:52.592Z,4.13
2019-05-07T15:44:23.049Z,4.40
2019-05-07T15:46:55.006Z,3.90
2019-05-07T15:49:24.690Z,3.70
2019-05-07T15:51:56.602Z,4.67
2019-05-07T15:54:26.319Z,4.63
2019-05-07T15:56:58.390Z,5.00
2019-05-07T15:59:28.757Z,4.78
2019-05-07T16:02:07.732Z,4.80
2019-05-07T16:04:38.220Z,5.05
2019-05-07T16:07:10.230Z,4.30
2019-05-07T16:09:43.615Z,4.63
2019-05-07T16:12:14.925Z,4.47
2019-05-07T16:14:48.263Z,4.50
2019-05-07T16:17:42.434Z,4.70
2019-05-07T16:20:14.654Z,4.50
2019-05-07T16:22:47.963Z,4.50
2019-05-07T16:25:18.350Z,4.37
2019-05-07T16:27:48.075Z,4.63
2019-05-07T16:30:18.983Z,5.33
2019-05-07T16:32:49.435Z,5.07
2019-05-07T16:35:20.023Z,5.30
2019-05-07T16:37:49.744Z,6.10
2019-05-07T16:40:19.799Z,5.93
2019-05-07T16:42:49.417Z,6.70
2019-05-07T16:45:20.112Z,6.30
2019-05-07T16:47:51.975Z,6.90
2019-05-07T16:50:22.487Z,6.40
2019-05-07T16:52:52.898Z,6.63
2019-05-07T16:55:25.111Z,6.60
2019-05-07T16:58:13.719Z,6.97
2019-05-07T17:00:49.062Z,6.23
2019-05-07T17:03:23.654Z,6.93
2019-05-07T17:05:53.350Z,6.87
2019-05-07T17:08:33.161Z,6.67
2019-05-07T17:11:03.475Z,6.83
2019-05-07T17:13:33.877Z,6.90
2019-05-07T17:16:03.633Z,6.77
2019-05-07T17:18:33.369Z,6.63
2019-05-07T17:21:03.994Z,7.17
2019-05-07T17:23:44.001Z,6.67
2019-05-07T17:26:11.716Z,6.90
2019-05-07T17:28:42.658Z,6.97
2019-05-07T17:31:14.716Z,7.27
2019-05-07T17:33:44.525Z,6.60
2019-05-07T17:36:14.236Z,6.73
2019-05-07T17:38:45.016Z,6.47
2019-05-07T17:41:21.251Z,6.73
2019-05-07T17:43:52.201Z,6.80
2019-05-07T17:46:22.172Z,7.00
2019-05-07T17:48:52.473Z,6.17
2019-05-07T17:51:42.585Z,6.17
2019-05-07T17:54:13.338Z,6.13
2019-05-07T17:56:45.938Z,6.63
2019-05-07T17:59:15.772Z,6.50
2019-05-07T18:02:06.302Z,5.90
2019-05-07T18:04:50.621Z,5.80
2019-05-07T18:07:12.270Z,5.87
2019-05-07T18:09:42.913Z,5.30
2019-05-07T18:12:12.747Z,5.47
2019-05-07T18:14:43.194Z,5.63
2019-05-07T18:17:33.644Z,5.07
2019-05-07T18:20:04.369Z,5.20
2019-05-07T18:22:34.907Z,6.70
2019-05-07T18:25:05.078Z,4.80
2019-05-07T18:27:36.118Z,6.07
2019-05-07T18:30:06.149Z,5.60
2019-05-07T18:32:39.941Z,5.40
2019-05-07T18:35:12.493Z,5.40
2019-05-07T18:38:02.587Z,5.57
2019-05-07T18:40:36.266Z,5.57
2019-05-07T18:43:07.527Z,5.77
2019-05-07T18:45:38.205Z,6.07
2019-05-07T18:48:11.965Z,5.37
2019-05-07T18:50:42.065Z,5.67
2019-05-07T18:53:16.755Z,5.53
2019-05-07T18:55:47.147Z,5.90
2019-05-07T18:58:17.868Z,6.30
2019-05-07T19:00:55.359Z,5.70
2019-05-07T19:03:25.433Z,6.00
2019-05-07T19:05:55.583Z,5.80
2019-05-07T19:08:25.333Z,6.43
2019-05-07T19:10:55.834Z,6.37
2019-05-07T19:13:26.285Z,5.93
2019-05-07T19:15:56.755Z,6.20
2019-05-07T19:18:26.565Z,5.83
2019-05-07T19:20:56.925Z,5.90
2019-05-07T19:23:27.403Z,5.90
2019-05-07T19:25:58.167Z,6.23
2019-05-07T19:28:27.948Z,6.40
2019-05-07T19:30:58.435Z,6.03
2019-05-07T19:33:28.889Z,6.67
2019-05-07T19:35:59.410Z,6.93
2019-05-07T19:38:29.194Z,7.00
2019-05-07T19:41:02.035Z,6.23
2019-05-07T19:43:32.551Z,7.60
2019-05-07T19:46:04.118Z,7.20
2019-05-07T19:48:33.906Z,7.17
2019-05-07T19:51:05.967Z,6.30
2019-05-07T19:53:35.739Z,6.47
2019-05-07T19:56:09.650Z,7.47
2019-05-07T19:58:41.956Z,7.73
2019-05-07T20:01:13.855Z,7.37
2019-05-07T20:03:44.318Z,6.10
2019-05-07T20:06:14.817Z,6.20
2019-05-07T20:08:45.336Z,6.33
2019-05-07T20:11:31.847Z,6.50
2019-05-07T20:14:02.085Z,6.00
2019-05-07T20:16:33.219Z,6.03
2019-05-07T20:19:03.217Z,7.40
2019-05-07T20:21:33.306Z,6.65
2019-05-07T20:24:03.706Z,5.97
2019-05-07T20:26:35.657Z,6.53
2019-05-07T20:29:13.986Z,8.67
2019-05-07T20:31:46.715Z,6.67
2019-05-07T20:34:17.257Z,6.93
2019-05-07T20:36:51.847Z,6.47
2019-05-07T20:39:23.417Z,7.67
2019-05-07T20:41:54.909Z,10.93
2019-05-07T20:44:26.786Z,9.40
2019-05-07T20:46:57.201Z,10.40
2019-05-07T20:49:27.667Z,8.47
2019-05-07T20:51:58.019Z,8.00
2019-05-07T20:54:42.692Z,7.03
2019-05-07T20:57:22.516Z,6.47
2019-05-07T20:59:52.921Z,8.00
2019-05-07T21:02:22.881Z,6.40
2019-05-07T21:04:53.339Z,9.57
2019-05-07T21:07:23.125Z,7.90
2019-05-07T21:09:53.553Z,5.87
2019-05-07T21:12:23.298Z,5.47
2019-05-07T21:14:53.669Z,5.50
2019-05-07T21:17:24.114Z,5.43
2019-05-07T21:19:54.598Z,5.73
2019-05-07T21:22:25.085Z,5.97
2019-05-07T21:24:55.580Z,6.70
2019-05-07T21:27:26.002Z,5.83
2019-05-07T21:29:56.542Z,5.63
2019-05-07T21:32:27.010Z,6.40
2019-05-07T21:34:57.481Z,6.20
2019-05-07T21:37:27.917Z,6.40
2019-05-07T21:39:58.352Z,6.43
2019-05-07T21:42:28.786Z,6.43
2019-05-07T21:44:58.508Z,6.50
2019-05-07T21:47:28.854Z,7.07
2019-05-07T21:49:58.597Z,6.93
2019-05-07T21:52:29.841Z,6.77
2019-05-07T21:55:10.154Z,6.17
2019-05-07T21:57:55.330Z,6.97
2019-05-07T22:00:44.169Z,6.57
2019-05-07T22:03:16.689Z,7.70
2019-05-07T22:05:47.142Z,7.33
2019-05-07T22:08:17.587Z,7.83
2019-05-07T22:10:48.281Z,7.87
2019-05-07T22:13:18.706Z,7.50
2019-05-07T22:15:49.187Z,7.73
2019-05-07T22:18:19.867Z,8.27
2019-05-07T22:20:52.209Z,7.03
2019-05-07T22:23:24.778Z,7.67
2019-05-07T22:25:54.485Z,7.92
2019-05-07T22:28:24.950Z,8.40
2019-05-07T22:31:12.689Z,8.67
2019-05-07T22:33:59.207Z,8.10
2019-05-07T22:36:28.601Z,8.80
2019-05-07T22:38:59.133Z,7.47
2019-05-07T22:41:31.698Z,8.00
2019-05-07T22:44:02.583Z,7.67
2019-05-07T22:46:33.005Z,7.87
2019-05-07T22:49:03.483Z,7.10
2019-05-07T22:51:33.985Z,7.33
2019-05-07T22:54:04.535Z,6.37
2019-05-07T22:56:52.605Z,5.70
2019-05-07T22:59:23.045Z,4.87
2019-05-07T23:01:54.923Z,4.80
2019-05-07T23:04:25.590Z,4.53
2019-05-07T23:06:55.962Z,4.13
2019-05-07T23:09:28.628Z,4.90
2019-05-07T23:11:58.988Z,4.07
2019-05-07T23:14:29.358Z,5.13
2019-05-07T23:16:59.097Z,5.03
2019-05-07T23:19:29.552Z,5.40
2019-05-07T23:22:02.758Z,5.30
2019-05-07T23:24:32.692Z,6.27
2019-05-07T23:27:03.029Z,6.00
2019-05-07T23:29:33.421Z,6.20
2019-05-07T23:32:03.924Z,5.80
2019-05-07T23:34:36.013Z,5.27
2019-05-07T23:37:06.467Z,5.03
2019-05-07T23:39:38.750Z,5.07
2019-05-07T23:42:19.528Z,5.63
2019-05-07T23:44:49.245Z,5.80
2019-05-07T23:47:19.602Z,5.77
2019-05-07T23:49:52.240Z,6.30
2019-05-07T23:52:22.499Z,5.30
2019-05-07T23:54:52.996Z,5.10
2019-05-07T23:57:23.493Z,4.47
2019-05-07T23:59:53.929Z,4.83
